Time;durP1;ratioP1;P1;durP2;ratioP2;P2;SDS_P1;SDS_P2;PMS_P1;PMS_P2;Temp;Humidity;BMP_temperature;BMP_pressure;BME280_temperature;BME280_humidity;BME280_pressure;Samples;Min_cycle;Max_cycle;Signal;HPM_P1;HPM_P2
2022/07/19 00:01:28;;;;;;;4.43;2.50;;;;;;;21.05;80.70;101264.47;5010937;28;20065;-65
2022/07/19 00:03:56;;;;;;;4.55;2.28;;;;;;;20.99;80.57;101268.81;5012272;28;20099;-65
2022/07/19 00:06:21;;;;;;;3.15;2.38;;;;;;;20.80;81.00;101263.16;5009995;28;20038;-65
2022/07/19 00:08:47;;;;;;;8.27;2.10;;;;;;;20.87;80.91;101263.06;5011330;28;20034;-65
2022/07/19 00:11:12;;;;;;;7.35;1.83;;;;;;;20.88;80.93;101268.16;4995431;28;20027;-66
2022/07/19 00:13:38;;;;;;;4.15;2.10;;;;;;;20.58;81.79;101268.09;4992784;28;20545;-65
2022/07/19 00:16:03;;;;;;;4.47;1.90;;;;;;;20.58;81.95;101263.41;4992326;28;20042;-65
2022/07/19 00:18:29;;;;;;;6.75;1.92;;;;;;;20.54;82.48;101267.38;4995234;28;20069;-65
2022/07/19 00:20:55;;;;;;;4.15;2.00;;;;;;;20.65;82.22;101265.31;5012141;28;20034;-65
2022/07/19 00:23:21;;;;;;;4.55;1.67;;;;;;;20.46;82.67;101274.88;5012109;28;20049;-65
2022/07/19 00:25:46;;;;;;;3.15;1.95;;;;;;;20.54;82.07;101275.56;5012287;28;20057;-65
2022/07/19 00:28:12;;;;;;;7.53;2.20;;;;;;;20.60;81.59;101274.72;5004971;28;20037;-65
2022/07/19 00:30:37;;;;;;;4.85;1.90;;;;;;;20.53;82.35;101280.28;4992147;28;20045;-65
2022/07/19 00:33:08;;;;;;;5.15;2.17;;;;;;;20.44;82.63;101277.25;4992114;28;20033;-65
2022/07/19 00:35:35;;;;;;;3.70;1.85;;;;;;;20.41;82.30;101278.06;4992527;28;20030;-65
2022/07/19 00:38:08;;;;;;;4.68;2.17;;;;;;;20.35;82.60;101276.16;4990531;28;20177;-65
2022/07/19 00:40:35;;;;;;;3.53;2.03;;;;;;;20.19;82.51;101275.94;4991901;28;20406;-65
2022/07/19 00:43:01;;;;;;;3.58;1.90;;;;;;;20.26;82.24;101270.41;4991831;28;20419;-65
2022/07/19 00:45:27;;;;;;;2.53;1.70;;;;;;;20.40;82.21;101271.03;4992087;28;20045;-66
2022/07/19 00:47:53;;;;;;;4.50;2.15;;;;;;;20.41;81.76;101272.59;4990834;28;20125;-65
2022/07/19 00:50:19;;;;;;;4.20;2.05;;;;;;;20.21;82.53;101273.59;4992159;28;20518;-65
2022/07/19 00:52:50;;;;;;;4.47;2.30;;;;;;;20.11;83.14;101282.63;4992284;28;20506;-65
2022/07/19 00:55:18;;;;;;;3.80;2.15;;;;;;;20.05;83.67;101278.75;4991678;28;20041;-65
2022/07/19 00:57:45;;;;;;;7.57;2.10;;;;;;;20.06;82.85;101277.56;5010242;28;20041;-65
2022/07/19 01:00:11;;;;;;;4.05;2.00;;;;;;;20.02;83.54;101271.34;5011542;28;20161;-65
2022/07/19 01:02:37;;;;;;;4.50;2.20;;;;;;;19.95;83.53;101277.66;5011264;28;20073;-65
2022/07/19 01:05:04;;;;;;;5.80;2.40;;;;;;;19.98;83.27;101278.81;4996383;28;20111;-65
2022/07/19 01:07:29;;;;;;;5.35;2.28;;;;;;;19.99;83.26;101277.63;4991514;28;20044;-65
2022/07/19 01:09:55;;;;;;;3.10;1.90;;;;;;;19.90;83.39;101274.59;4991545;28;20030;-65
2022/07/19 01:12:22;;;;;;;4.32;2.10;;;;;;;19.68;83.84;101272.03;4991802;28;20093;-65
2022/07/19 01:14:49;;;;;;;4.13;1.90;;;;;;;19.50;84.93;101274.09;4991116;28;20034;-65
2022/07/19 01:17:15;;;;;;;4.80;2.03;;;;;;;19.54;85.61;101271.31;4991593;28;20064;-65
2022/07/19 01:19:43;;;;;;;4.22;2.33;;;;;;;19.78;84.55;101276.59;4990362;28;20495;-65
2022/07/19 01:22:08;;;;;;;3.50;1.83;;;;;;;19.85;83.63;101277.75;4991866;28;20428;-65
2022/07/19 01:24:34;;;;;;;4.60;2.15;;;;;;;19.93;83.20;101277.28;4991576;28;20030;-65
2022/07/19 01:26:59;;;;;;;4.72;1.90;;;;;;;19.82;83.93;101281.28;4991822;28;20117;-65
2022/07/19 01:29:25;;;;;;;3.53;2.25;;;;;;;19.81;83.04;101283.25;4990517;28;20457;-65
2022/07/19 01:31:51;;;;;;;3.95;2.20;;;;;;;19.77;83.86;101277.81;4991475;28;20112;-65
2022/07/19 01:34:16;;;;;;;5.38;2.35;;;;;;;19.80;84.02;101282.44;4996054;28;20046;-65
2022/07/19 01:36:42;;;;;;;3.58;2.00;;;;;;;19.70;84.14;101277.06;4991436;28;20038;-65
2022/07/19 01:39:07;;;;;;;6.22;2.28;;;;;;;19.72;83.97;101280.19;4990499;28;20030;-65
2022/07/19 01:41:33;;;;;;;4.30;2.25;;;;;;;19.86;82.72;101284.78;4990989;28;20219;-65
2022/07/19 01:43:58;;;;;;;4.70;3.22;;;;;;;20.06;82.50;101283.03;4991431;28;20380;-65
2022/07/19 01:46:24;;;;;;;3.75;2.30;;;;;;;20.07;81.83;101273.66;4991542;28;20029;-65
2022/07/19 01:48:49;;;;;;;3.60;2.42;;;;;;;20.00;81.68;101270.97;4990744;28;20034;-65
2022/07/19 01:51:15;;;;;;;3.25;1.98;;;;;;;19.62;82.36;101265.41;4992520;28;20113;-65
2022/07/19 01:53:40;;;;;;;3.33;2.13;;;;;;;19.68;83.19;101276.69;5010955;28;20044;-65
2022/07/19 01:56:07;;;;;;;4.03;2.00;;;;;;;19.93;81.99;101265.56;5010974;28;20148;-65
2022/07/19 01:58:33;;;;;;;3.92;2.28;;;;;;;20.07;81.23;101273.66;5009912;28;20037;-65
2022/07/19 02:01:01;;;;;;;3.80;1.98;;;;;;;19.70;82.40;101277.84;4991783;28;20026;-65
2022/07/19 02:03:27;;;;;;;4.05;2.22;;;;;;;19.75;82.66;101273.91;4991129;28;20442;-65
2022/07/19 02:05:52;;;;;;;3.75;1.95;;;;;;;19.58;83.16;101269.34;4988709;28;20081;-65
2022/07/19 02:08:18;;;;;;;4.53;2.30;;;;;;;19.55;83.71;101268.19;4989996;28;20398;-65
2022/07/19 02:10:43;;;;;;;3.80;1.83;;;;;;;19.31;84.29;101274.56;4991342;28;20382;-65
2022/07/19 02:13:09;;;;;;;4.75;2.00;;;;;;;19.34;84.88;101268.31;4991221;28;20042;-65
2022/07/19 02:15:34;;;;;;;5.20;2.08;;;;;;;19.41;84.62;101272.97;4991544;28;20040;-65
2022/07/19 02:18:01;;;;;;;4.03;2.08;;;;;;;19.47;84.37;101261.19;4993685;28;20121;-65
2022/07/19 02:20:26;;;;;;;3.75;1.98;;;;;;;19.39;84.26;101269.84;4994577;28;20026;-65
2022/07/19 02:22:52;;;;;;;4.28;2.33;;;;;;;19.35;84.86;101272.63;4994821;28;20046;-65
2022/07/19 02:25:18;;;;;;;4.97;2.22;;;;;;;19.36;84.41;101265.16;4993939;28;20088;-65
2022/07/19 02:27:43;;;;;;;3.60;1.88;;;;;;;19.22;84.64;101267.97;4993399;28;20030;-65
2022/07/19 02:30:11;;;;;;;2.47;1.60;;;;;;;19.13;85.42;101264.88;4994808;28;20068;-65
2022/07/19 02:32:37;;;;;;;3.28;2.00;;;;;;;19.04;85.77;101270.78;4994510;28;20403;-65
2022/07/19 02:35:05;;;;;;;2.78;1.98;;;;;;;19.12;85.35;101271.53;4993491;28;20031;-65
2022/07/19 02:37:30;;;;;;;4.20;2.40;;;;;;;19.01;86.10;101262.59;4993913;28;20093;-65
2022/07/19 02:39:56;;;;;;;5.05;2.20;;;;;;;19.14;85.36;101261.78;4993927;28;20525;-65
2022/07/19 02:42:21;;;;;;;4.22;2.03;;;;;;;19.29;85.00;101265.19;4994410;28;20096;-65
2022/07/19 02:44:47;;;;;;;4.55;1.85;;;;;;;19.50;83.82;101256.91;5003917;28;20025;-65
2022/07/19 02:47:12;;;;;;;3.65;1.90;;;;;;;19.57;83.26;101263.09;5013962;28;20030;-66
2022/07/19 02:49:38;;;;;;;3.90;2.20;;;;;;;19.44;83.18;101255.75;5012834;28;20092;-65
2022/07/19 02:52:04;;;;;;;4.07;2.22;;;;;;;19.34;83.58;101262.06;5013943;28;20208;-65
2022/07/19 02:54:29;;;;;;;5.25;2.20;;;;;;;19.39;82.95;101264.41;5012071;28;20029;-65
2022/07/19 02:56:55;;;;;;;4.20;2.15;;;;;;;18.92;85.28;101263.03;5014211;28;20422;-65
2022/07/19 02:59:20;;;;;;;3.97;2.10;;;;;;;18.83;85.92;101265.41;5012516;28;20022;-65
2022/07/19 03:01:46;;;;;;;3.63;1.70;;;;;;;18.79;85.88;101267.38;5005547;28;20045;-65
2022/07/19 03:04:11;;;;;;;4.40;1.77;;;;;;;18.87;85.72;101274.38;4994007;28;20030;-65
2022/07/19 03:06:37;;;;;;;4.97;1.95;;;;;;;18.80;86.24;101269.69;4992630;28;20046;-65
2022/07/19 03:09:02;;;;;;;3.03;2.15;;;;;;;18.81;85.83;101275.94;4996378;28;20101;-65
2022/07/19 03:11:28;;;;;;;3.63;2.17;;;;;;;18.61;86.88;101272.09;5013283;28;20033;-65
2022/07/19 03:13:53;;;;;;;4.05;1.83;;;;;;;18.47;87.54;101272.91;5013633;28;20080;-65
2022/07/19 03:16:19;;;;;;;4.55;2.20;;;;;;;18.60;86.69;101276.00;5013479;28;20033;-65
2022/07/19 03:18:44;;;;;;;4.45;2.10;;;;;;;18.28;87.30;101273.28;4999363;28;20070;-65
2022/07/19 03:21:10;;;;;;;3.85;2.03;;;;;;;18.40;88.34;101277.56;4993785;28;20105;-65
2022/07/19 03:23:36;;;;;;;4.70;2.20;;;;;;;18.44;87.75;101272.91;4976123;28;20041;-65
2022/07/19 03:26:03;;;;;;;3.00;1.80;;;;;;;18.74;86.68;101276.72;4993721;28;20042;-65
2022/07/19 03:28:29;;;;;;;5.10;2.40;;;;;;;18.71;85.98;101287.66;5007391;28;20037;-65
2022/07/19 03:30:54;;;;;;;4.15;2.05;;;;;;;18.42;86.62;101281.50;5013304;28;20475;-65
2022/07/19 03:33:20;;;;;;;2.78;1.85;;;;;;;18.47;87.08;101283.81;5011046;28;20084;-65
2022/07/19 03:35:46;;;;;;;3.75;2.22;;;;;;;18.43;87.03;101287.72;4993146;28;20101;-65
2022/07/19 03:38:13;;;;;;;3.75;2.10;;;;;;;18.22;88.23;101283.03;4991975;28;20410;-65
2022/07/19 03:40:39;;;;;;;4.93;2.10;;;;;;;18.37;87.25;101294.72;4993134;28;20033;-65
2022/07/19 03:43:05;;;;;;;3.10;1.92;;;;;;;18.55;86.91;101279.13;4993412;28;20050;-65
2022/07/19 03:45:30;;;;;;;6.07;2.53;;;;;;;18.37;87.31;101286.53;5001679;28;20025;-65
2022/07/19 03:47:56;;;;;;;4.85;2.70;;;;;;;18.09;88.28;101286.53;5012004;28;20041;-65
2022/07/19 03:50:21;;;;;;;3.22;2.00;;;;;;;18.21;88.31;101288.88;5012655;28;20021;-66
2022/07/19 03:52:47;;;;;;;3.50;1.88;;;;;;;18.36;88.44;101290.44;5003893;28;20046;-65
2022/07/19 03:55:12;;;;;;;3.35;2.00;;;;;;;18.35;87.64;101289.63;4993221;28;20081;-65
2022/07/19 03:57:38;;;;;;;4.10;2.10;;;;;;;18.34;88.40;101287.31;4992589;28;20406;-65
2022/07/19 04:00:05;;;;;;;4.32;2.00;;;;;;;18.29;88.52;101287.72;4992602;28;20526;-65
2022/07/19 04:02:37;;;;;;;5.03;2.20;;;;;;;18.17;89.36;101280.72;4992342;28;20046;-65
2022/07/19 04:05:03;;;;;;;6.45;1.98;;;;;;;18.36;88.85;101287.69;4990249;28;20044;-65
2022/07/19 04:07:29;;;;;;;4.10;2.30;;;;;;;18.60;88.22;101286.91;4992313;28;20034;-65
2022/07/19 04:09:54;;;;;;;4.10;2.10;;;;;;;18.78;87.58;101290.38;4992220;28;20481;-65
2022/07/19 04:12:20;;;;;;;5.47;2.30;;;;;;;18.86;86.99;101286.44;4992804;28;20080;-65
2022/07/19 04:14:45;;;;;;;4.07;2.17;;;;;;;18.80;87.49;101286.06;4992675;28;20547;-65
2022/07/19 04:17:11;;;;;;;9.30;2.35;;;;;;;18.72;86.75;101283.75;4992616;28;20033;-65
2022/07/19 04:19:36;;;;;;;5.93;2.40;;;;;;;18.46;88.10;101286.94;4999922;28;20780;-65
2022/07/19 04:22:02;;;;;;;5.22;2.03;;;;;;;18.54;88.85;101283.78;5010154;28;20485;-65
2022/07/19 04:24:28;;;;;;;4.45;2.20;;;;;;;18.73;88.45;101283.38;4992463;28;20038;-65
2022/07/19 04:26:53;;;;;;;4.30;2.08;;;;;;;18.85;88.11;101287.63;4992635;28;20080;-65
2022/07/19 04:29:19;;;;;;;4.47;2.05;;;;;;;18.84;88.03;101280.59;4991576;28;20066;-65
2022/07/19 04:31:45;;;;;;;3.78;2.10;;;;;;;18.97;88.36;101295.38;4991856;28;20029;-65
2022/07/19 04:34:10;;;;;;;4.85;2.30;;;;;;;19.11;87.90;101287.13;4992312;28;20062;-65
2022/07/19 04:36:36;;;;;;;3.83;1.98;;;;;;;19.30;87.09;101286.66;4992281;28;20037;-65
2022/07/19 04:39:02;;;;;;;4.88;2.47;;;;;;;19.42;86.87;101294.41;4991388;28;20041;-65
2022/07/19 04:41:28;;;;;;;4.10;2.08;;;;;;;19.57;86.14;101295.09;4991550;28;20505;-66
2022/07/19 04:43:54;;;;;;;5.13;2.33;;;;;;;19.75;85.27;101298.50;4992329;28;20046;-65
2022/07/19 04:46:19;;;;;;;4.60;2.30;;;;;;;19.83;84.28;101296.50;4992528;28;20033;-65
2022/07/19 04:48:45;;;;;;;3.72;2.15;;;;;;;19.84;84.84;101303.53;4990790;28;20034;-65
2022/07/19 04:51:10;;;;;;;3.72;2.25;;;;;;;19.75;85.09;101301.25;4991939;28;20019;-65
2022/07/19 04:53:36;;;;;;;3.58;2.15;;;;;;;19.79;85.15;101302.00;4991757;28;20034;-65
2022/07/19 04:56:01;;;;;;;3.08;1.85;;;;;;;19.82;85.22;101303.94;4991671;28;20057;-65
2022/07/19 04:58:27;;;;;;;4.10;2.10;;;;;;;19.92;85.57;101308.53;4991278;28;20026;-65
2022/07/19 05:00:52;;;;;;;3.95;2.10;;;;;;;19.91;84.88;101311.69;4991863;28;20166;-65
2022/07/19 05:03:18;;;;;;;6.85;2.28;;;;;;;20.08;84.26;101308.81;4991449;28;20061;-65
2022/07/19 05:05:43;;;;;;;5.55;1.90;;;;;;;20.21;83.96;101309.16;4980111;28;20050;-65
2022/07/19 05:08:10;;;;;;;2.60;1.80;;;;;;;20.31;84.05;101314.50;4954425;28;20105;-65
2022/07/19 05:10:36;;;;;;;4.55;2.28;;;;;;;20.44;83.77;101309.31;4972270;28;20058;-65
2022/07/19 05:13:01;;;;;;;4.65;2.30;;;;;;;20.61;83.57;101306.38;4972441;28;20054;-65
2022/07/19 05:15:27;;;;;;;4.32;2.28;;;;;;;20.86;82.31;101302.63;4990742;28;20398;-65
2022/07/19 05:17:53;;;;;;;3.38;2.15;;;;;;;21.10;81.61;101298.84;4990795;28;20073;-65
2022/07/19 05:20:18;;;;;;;5.90;2.20;;;;;;;21.40;81.25;101307.06;4991648;28;20046;-65
2022/07/19 05:22:44;;;;;;;4.57;2.38;;;;;;;21.69;80.87;101316.44;4991238;28;20117;-65
2022/07/19 05:25:10;;;;;;;3.42;2.08;;;;;;;21.90;79.78;101305.19;4991571;28;20042;-65
2022/07/19 05:27:36;;;;;;;5.15;2.22;;;;;;;22.20;79.36;101304.31;4990252;28;20033;-66
2022/07/19 05:30:04;;;;;;;4.97;2.33;;;;;;;22.60;78.78;101308.72;4990838;28;20038;-65
2022/07/19 05:32:30;;;;;;;4.30;2.28;;;;;;;23.07;77.82;101309.38;4991154;28;20026;-65
2022/07/19 05:34:55;;;;;;;6.40;2.60;;;;;;;23.44;75.09;101306.22;4991164;28;20049;-65
2022/07/19 05:37:21;;;;;;;3.08;1.98;;;;;;;23.66;72.48;101314.78;4991174;28;20026;-66
2022/07/19 05:39:46;;;;;;;4.65;2.05;;;;;;;24.04;71.58;101318.66;4995897;28;20052;-65
2022/07/19 05:42:12;;;;;;;4.63;2.20;;;;;;;24.32;70.36;101306.13;5010985;28;20029;-65
2022/07/19 05:44:38;;;;;;;4.43;2.33;;;;;;;24.55;69.81;101314.19;5011081;28;20135;-65
2022/07/19 05:47:03;;;;;;;3.80;2.25;;;;;;;24.77;68.16;101309.69;5011092;28;20030;-65
2022/07/19 05:49:29;;;;;;;6.18;1.85;;;;;;;24.82;66.06;101315.44;4991997;28;20048;-65
2022/07/19 05:51:54;;;;;;;4.50;1.98;;;;;;;24.74;68.17;101314.06;4994032;28;20031;-65
2022/07/19 05:54:20;;;;;;;3.85;2.10;;;;;;;25.10;67.49;101313.09;4994820;28;20038;-65
2022/07/19 05:56:45;;;;;;;4.05;1.70;;;;;;;25.20;65.21;101320.28;4995142;28;20026;-65
2022/07/19 05:59:11;;;;;;;5.60;2.28;;;;;;;25.17;58.34;101313.66;4993939;28;20034;-65
2022/07/19 06:01:36;;;;;;;3.33;2.10;;;;;;;25.31;58.22;101315.22;4995295;28;20077;-65
2022/07/19 06:04:02;;;;;;;3.03;1.85;;;;;;;25.69;59.44;101305.78;4995493;28;20057;-66
2022/07/19 06:06:32;;;;;;;2.42;1.70;;;;;;;26.00;62.18;101307.97;4991338;28;20054;-65
2022/07/19 06:08:59;;;;;;;3.70;2.17;;;;;;;26.23;61.75;101310.38;4994094;28;20042;-65
2022/07/19 06:11:25;;;;;;;3.95;2.20;;;;;;;26.39;62.14;101301.91;4994861;28;20030;-65
2022/07/19 06:13:52;;;;;;;2.95;1.73;;;;;;;26.50;61.91;101305.84;4994985;28;20487;-65
2022/07/19 06:16:18;;;;;;;4.50;2.15;;;;;;;26.54;62.64;101312.03;5012217;28;20034;-66
2022/07/19 06:18:44;;;;;;;7.40;2.20;;;;;;;26.53;62.84;101312.50;5013271;28;20501;-65
2022/07/19 06:21:12;;;;;;;4.60;2.17;;;;;;;26.60;61.69;101317.75;5014453;28;20026;-66
2022/07/19 06:23:39;;;;;;;4.38;2.10;;;;;;;26.20;60.00;101317.56;5011198;28;20053;-66
2022/07/19 06:26:06;;;;;;;3.63;1.92;;;;;;;26.61;61.75;101317.34;4994291;28;20030;-66
2022/07/19 06:28:32;;;;;;;3.05;2.10;;;;;;;26.93;60.92;101323.72;4993883;28;20034;-66
2022/07/19 06:30:58;;;;;;;3.97;2.00;;;;;;;27.18;60.71;101318.03;4994435;28;20019;-66
2022/07/19 06:33:23;;;;;;;3.72;1.95;;;;;;;27.35;61.15;101327.72;4993717;28;20169;-66
2022/07/19 06:35:49;;;;;;;2.85;1.70;;;;;;;27.21;62.03;101319.91;4994172;28;20022;-65
2022/07/19 06:38:15;;;;;;;4.22;2.40;;;;;;;27.43;60.56;101331.75;4993379;28;20070;-66
2022/07/19 06:40:41;;;;;;;3.50;1.90;;;;;;;27.53;58.18;101330.56;4993183;28;20022;-66
2022/07/19 06:43:07;;;;;;;3.05;1.80;;;;;;;27.17;56.32;101333.13;4994379;28;20050;-66
2022/07/19 06:45:33;;;;;;;4.15;2.38;;;;;;;27.43;60.18;101340.03;4993663;28;20033;-66
2022/07/19 06:47:58;;;;;;;4.93;2.15;;;;;;;27.45;58.86;101340.34;4993141;28;20402;-66
2022/07/19 06:50:24;;;;;;;4.25;2.15;;;;;;;27.75;60.51;101334.06;4985568;28;20029;-66
2022/07/19 06:52:50;;;;;;;3.08;2.00;;;;;;;27.95;60.67;101351.06;5013943;28;20038;-66
2022/07/19 06:55:15;;;;;;;3.50;1.90;;;;;;;27.87;56.38;101349.00;5013992;28;20045;-66
2022/07/19 06:57:41;;;;;;;2.97;1.80;;;;;;;28.16;59.47;101347.44;5009800;28;20030;-66
2022/07/19 07:00:09;;;;;;;3.42;1.98;;;;;;;28.28;57.80;101335.44;4993591;28;20435;-66
2022/07/19 07:02:38;;;;;;;3.15;2.00;;;;;;;28.36;57.51;101345.00;4992837;28;20046;-66
2022/07/19 07:05:06;;;;;;;3.63;2.20;;;;;;;28.62;57.99;101348.28;4991075;28;20038;-66
2022/07/19 07:07:31;;;;;;;4.50;2.03;;;;;;;28.54;53.82;101338.72;4992843;28;20044;-66
2022/07/19 07:09:57;;;;;;;2.78;1.80;;;;;;;28.46;53.37;101341.00;4993580;28;20030;-66
2022/07/19 07:12:22;;;;;;;3.00;1.80;;;;;;;28.55;55.56;101334.75;4993947;28;20499;-66
2022/07/19 07:14:48;;;;;;;3.08;1.80;;;;;;;28.85;57.02;101333.00;4994818;28;20574;-66
2022/07/19 07:17:13;;;;;;;3.17;1.83;;;;;;;29.14;56.21;101342.41;5013431;28;20498;-66
2022/07/19 07:19:39;;;;;;;2.67;1.83;;;;;;;29.23;55.07;101333.28;5012125;28;20375;-66
2022/07/19 07:22:04;;;;;;;3.08;1.85;;;;;;;29.38;53.42;101328.63;5013334;28;20017;-66
2022/07/19 07:24:30;;;;;;;5.03;2.15;;;;;;;29.38;55.57;101336.97;5011506;28;20037;-66
2022/07/19 07:26:56;;;;;;;4.15;2.05;;;;;;;29.62;54.28;101337.00;4993545;28;20392;-66
2022/07/19 07:29:21;;;;;;;5.22;2.15;;;;;;;29.83;52.88;101336.78;4992638;28;20113;-66
2022/07/19 07:31:47;;;;;;;3.05;1.67;;;;;;;29.94;51.27;101334.28;4993290;28;20083;-66
2022/07/19 07:34:12;;;;;;;5.30;2.20;;;;;;;30.13;49.80;101343.28;4993327;28;20033;-66
2022/07/19 07:36:38;;;;;;;3.85;2.20;;;;;;;29.63;48.99;101335.78;4993322;28;20026;-66
2022/07/19 07:39:03;;;;;;;3.45;2.00;;;;;;;30.02;50.03;101337.47;4992390;28;20170;-66
2022/07/19 07:41:29;;;;;;;4.28;2.20;;;;;;;30.24;50.71;101354.63;4992351;28;20030;-66
2022/07/19 07:43:54;;;;;;;2.97;1.80;;;;;;;30.20;48.79;101342.91;4992911;28;20495;-66
2022/07/19 07:46:20;;;;;;;3.17;1.80;;;;;;;30.04;47.90;101332.22;4993364;28;20483;-66
2022/07/19 07:48:45;;;;;;;3.20;1.50;;;;;;;30.34;47.68;101338.66;4992370;28;20034;-66
2022/07/19 07:51:11;;;;;;;3.20;2.10;;;;;;;30.02;46.42;101346.56;4992745;28;20037;-66
2022/07/19 07:53:37;;;;;;;4.70;1.83;;;;;;;30.46;46.85;101346.00;4992796;28;20038;-65
2022/07/19 07:56:02;;;;;;;3.88;1.83;;;;;;;30.73;48.05;101349.34;4993208;28;20402;-66
2022/07/19 07:58:28;;;;;;;3.50;1.67;;;;;;;30.76;43.96;101339.28;4991679;28;20038;-66
2022/07/19 08:00:53;;;;;;;9.43;2.10;;;;;;;30.53;44.29;101342.84;4992581;28;20030;-66
2022/07/19 08:03:19;;;;;;;6.40;2.00;;;;;;;30.79;44.82;101338.31;4993039;28;20045;-66
2022/07/19 08:05:48;;;;;;;2.67;1.50;;;;;;;31.09;45.25;101339.91;4990720;28;20038;-66
2022/07/19 08:08:16;;;;;;;3.33;1.48;;;;;;;31.28;43.59;101332.13;4991747;28;20081;-66
2022/07/19 08:10:42;;;;;;;4.63;1.70;;;;;;;31.47;44.32;101330.69;4992799;28;20387;-66
2022/07/19 08:13:08;;;;;;;4.38;1.88;;;;;;;30.86;41.75;101330.38;4992174;28;20034;-66
2022/07/19 08:15:38;;;;;;;2.92;1.70;;;;;;;31.17;43.19;101324.34;4992114;28;20100;-66
2022/07/19 08:18:04;;;;;;;3.38;1.73;;;;;;;31.55;43.58;101326.28;4991743;28;20050;-66
2022/07/19 08:20:30;;;;;;;2.67;1.48;;;;;;;31.86;42.82;101330.00;4992527;28;20041;-66
2022/07/19 08:22:56;;;;;;;4.35;1.70;;;;;;;31.94;40.38;101328.38;4992115;28;20034;-66
2022/07/19 08:25:21;;;;;;;3.17;1.63;;;;;;;32.08;41.59;101326.03;4992588;28;20026;-66
2022/07/19 08:27:47;;;;;;;3.05;1.63;;;;;;;32.14;41.50;101322.06;4991237;28;20038;-66
2022/07/19 08:30:13;;;;;;;2.83;1.80;;;;;;;31.39;38.89;101315.63;4992083;28;20399;-66
2022/07/19 08:32:40;;;;;;;3.13;1.60;;;;;;;31.93;40.88;101318.50;4992199;28;20062;-66
2022/07/19 08:35:06;;;;;;;4.75;1.70;;;;;;;32.28;39.36;101321.25;4991877;28;20084;-66
2022/07/19 08:37:32;;;;;;;8.00;1.70;;;;;;;32.46;40.17;101309.06;4991609;28;20384;-66
2022/07/19 08:39:57;;;;;;;2.67;1.50;;;;;;;32.73;39.65;101309.31;4991387;28;20038;-66
2022/07/19 08:42:24;;;;;;;4.97;1.83;;;;;;;32.92;37.73;101312.56;5007687;28;20033;-66
2022/07/19 08:44:52;;;;;;;2.35;1.52;;;;;;;33.08;38.71;101312.00;5011765;28;20038;-66
2022/07/19 08:47:20;;;;;;;2.22;1.67;;;;;;;32.87;37.77;101299.31;5011616;28;20030;-66
2022/07/19 08:49:46;;;;;;;3.45;1.40;;;;;;;33.08;39.06;101302.84;5009954;28;20161;-66
2022/07/19 08:52:12;;;;;;;2.05;1.50;;;;;;;33.30;39.46;101292.59;5011613;28;20486;-66
2022/07/19 08:54:38;;;;;;;3.15;1.95;;;;;;;33.51;38.56;101296.06;5011752;28;20120;-66
2022/07/19 08:59:48;;;;;;;2.55;1.60;;;;;;;33.64;38.64;101299.97;5010035;28;20053;-64
2022/07/19 09:02:14;;;;;;;3.30;1.50;;;;;;;33.87;38.73;101297.31;5011203;28;20038;-64
2022/07/19 09:04:39;;;;;;;5.38;1.83;;;;;;;33.70;37.19;101306.38;5010272;28;20053;-64
2022/07/19 09:07:05;;;;;;;3.45;1.52;;;;;;;33.74;36.16;101297.75;5010296;28;20036;-64
2022/07/19 09:09:39;;;;;;;2.83;1.63;;;;;;;33.59;35.77;101297.91;4991051;28;20519;-64
2022/07/19 09:12:05;;;;;;;2.13;1.50;;;;;;;33.93;36.91;101290.50;4991851;28;20034;-64
2022/07/19 09:14:33;;;;;;;2.50;1.50;;;;;;;33.98;35.85;101291.81;4991592;28;20057;-64
2022/07/19 09:17:11;;;;;;;3.15;1.85;;;;;;;34.06;36.92;101288.03;4990943;28;20522;-63
2022/07/19 09:19:42;;;;;;;3.20;1.60;;;;;;;34.34;36.00;101296.53;4990897;28;20046;-64
2022/07/19 09:22:08;;;;;;;;;;;;;;;34.46;34.98;101292.47;4991975;28;20049;-64
2022/07/19 09:24:40;;;;;;;4.32;1.92;;;;;;;34.18;35.07;101288.84;4991111;28;20406;-64
2022/07/19 09:27:11;;;;;;;3.83;1.70;;;;;;;34.43;35.82;101296.31;4990964;28;20042;-64
2022/07/19 09:29:40;;;;;;;2.95;1.63;;;;;;;34.76;35.85;101301.25;4990907;28;20125;-64
2022/07/19 09:32:11;;;;;;;2.17;1.38;;;;;;;35.00;36.45;101298.75;4991160;28;20031;-64
2022/07/19 09:34:40;;;;;;;4.00;1.60;;;;;;;35.25;35.88;101300.53;4991303;28;20030;-64
2022/07/19 09:37:13;;;;;;;2.70;1.60;;;;;;;34.79;36.41;101300.97;4991366;28;20042;-64
2022/07/19 09:39:45;;;;;;;2.20;1.55;;;;;;;34.67;34.95;101296.63;4990735;28;20109;-64
2022/07/19 09:42:12;;;;;;;1.70;1.25;;;;;;;34.90;35.91;101281.38;4991324;28;20452;-64
2022/07/19 09:44:39;;;;;;;1.77;1.13;;;;;;;35.16;35.74;101287.53;4990949;28;20495;-64
2022/07/19 09:47:04;;;;;;;2.10;1.30;;;;;;;35.48;34.09;101292.88;5018084;22;20057;-64
2022/07/19 09:49:30;;;;;;;2.22;1.33;;;;;;;35.74;32.07;101291.28;5026118;28;20037;-65
2022/07/19 09:51:55;;;;;;;2.05;1.30;;;;;;;35.80;31.99;101294.84;5021781;28;20102;-64
2022/07/19 09:54:24;;;;;;;2.58;1.30;;;;;;;35.94;33.11;101295.84;5011341;28;20574;-65
2022/07/19 09:56:51;;;;;;;2.67;1.30;;;;;;;35.98;32.70;101293.53;5017005;28;20057;-64
2022/07/19 09:59:18;;;;;;;1.92;1.35;;;;;;;35.80;32.28;101285.66;5009933;28;20418;-65
2022/07/19 10:01:45;;;;;;;4.28;1.75;;;;;;;35.87;31.82;101287.94;5010875;28;20034;-64
2022/07/19 10:04:14;;;;;;;1.92;1.30;;;;;;;36.02;32.32;101294.03;5010827;28;20034;-65
2022/07/19 10:06:41;;;;;;;2.83;1.50;;;;;;;35.38;31.80;101284.72;5008434;28;20088;-64
2022/07/19 10:09:09;;;;;;;2.65;1.55;;;;;;;35.30;33.36;101282.94;5010082;28;20042;-64
2022/07/19 10:11:36;;;;;;;2.08;1.27;;;;;;;35.25;32.63;101292.88;5010959;28;20049;-64
2022/07/19 10:14:02;;;;;;;1.33;1.00;;;;;;;35.87;33.42;101283.06;5009796;28;20117;-64
2022/07/19 10:16:34;;;;;;;1.77;1.23;;;;;;;36.24;32.94;101291.13;5010322;28;20045;-64
2022/07/19 10:19:15;;;;;;;1.52;1.08;;;;;;;36.15;31.36;101289.38;4992393;28;20410;-64
2022/07/19 10:21:40;;;;;;;;;;;;;;;36.42;31.73;101290.53;5010896;28;20490;-64
2022/07/19 10:24:06;;;;;;;2.70;1.30;;;;;;;36.84;32.25;101297.66;5009053;28;19920;-64
2022/07/19 10:26:40;;;;;;;2.33;1.27;;;;;;;36.63;31.80;101283.25;5009438;28;20037;-64
2022/07/19 10:29:19;;;;;;;2.67;1.40;;;;;;;37.05;31.98;101279.16;5009902;28;20406;-64
2022/07/19 10:32:03;;;;;;;1.52;1.08;;;;;;;37.41;30.74;101274.22;5009936;28;20131;-64
2022/07/19 10:34:29;;;;;;;1.60;0.80;;;;;;;37.62;30.39;101269.66;5010689;28;20042;-65
2022/07/19 10:36:55;;;;;;;1.38;1.08;;;;;;;37.65;30.40;101274.25;5011404;28;20037;-65
2022/07/19 10:39:33;;;;;;;1.65;1.10;;;;;;;37.75;30.39;101273.34;5013099;28;20044;-65
2022/07/19 10:42:19;;;;;;;4.97;1.48;;;;;;;37.91;30.15;101266.78;5013183;28;20038;-65
2022/07/19 10:44:54;;;;;;;1.60;1.13;;;;;;;37.98;31.25;101271.78;5013950;28;20034;-65
2022/07/19 10:47:32;;;;;;;2.00;0.95;;;;;;;37.79;29.09;101259.00;5013205;28;20042;-65
2022/07/19 10:50:06;;;;;;;1.48;0.80;;;;;;;38.03;28.28;101258.94;5013143;28;20121;-64
2022/07/19 10:52:33;;;;;;;1.30;0.90;;;;;;;37.66;28.75;101258.88;5014074;28;20034;-64
2022/07/19 10:55:18;;;;;;;1.67;1.00;;;;;;;38.06;29.30;101266.31;5013776;28;20022;-64
2022/07/19 10:57:49;;;;;;;1.83;0.82;;;;;;;38.30;28.39;101263.47;5012726;28;20037;-64
2022/07/19 11:00:21;;;;;;;2.38;1.00;;;;;;;38.31;26.96;101253.72;5012796;28;20091;-65
2022/07/19 11:02:47;;;;;;;1.50;0.75;;;;;;;37.83;28.21;101257.41;4996080;28;20403;-64
2022/07/19 11:05:28;;;;;;;1.38;0.90;;;;;;;38.22;28.32;101253.34;5012316;28;20079;-64
2022/07/19 11:07:55;;;;;;;2.15;1.02;;;;;;;38.49;28.85;101244.50;5012259;28;20037;-64
2022/07/19 11:10:26;;;;;;;1.80;1.25;;;;;;;38.62;29.08;101250.16;5013478;28;20479;-64
2022/07/19 11:12:52;;;;;;;1.63;0.90;;;;;;;38.84;28.73;101257.53;5012451;28;20379;-64
2022/07/19 11:15:17;;;;;;;1.30;0.88;;;;;;;39.05;28.83;101249.22;5013383;28;20040;-64
2022/07/19 11:17:58;;;;;;;1.98;1.00;;;;;;;39.17;28.70;101245.72;5012000;28;20113;-65
2022/07/19 11:20:26;;;;;;;1.17;1.00;;;;;;;39.17;28.57;101245.72;5013209;28;20037;-65
2022/07/19 11:22:55;;;;;;;1.30;0.90;;;;;;;38.54;26.25;101246.44;5013394;28;20030;-64
2022/07/19 11:25:28;;;;;;;0.93;0.77;;;;;;;38.96;26.43;101252.47;5012466;28;20038;-64
2022/07/19 11:27:54;;;;;;;1.13;0.82;;;;;;;39.08;27.02;101248.97;5012373;28;20029;-65